Time;durP1;ratioP1;P1;durP2;ratioP2;P2;SDS_P1;SDS_P2;PMS_P1;PMS_P2;Temp;Humidity;BMP_temperature;BMP_pressure;BME280_temperature;BME280_humidity;BME280_pressure;Samples;Min_cycle;Max_cycle;Signal;HPM_P1;HPM_P2
2024/01/11 00:02:07;;;;;;;86.07;40.73;;;;;;;-6.61;80.81;101232.59;4995895;28;20565;-57
2024/01/11 00:04:35;;;;;;;86.20;39.43;;;;;;;-6.60;80.88;101234.34;4998595;28;20208;-57
2024/01/11 00:07:03;;;;;;;80.57;37.13;;;;;;;-6.60;80.99;101222.69;4994528;28;20566;-60
2024/01/11 00:09:31;;;;;;;87.37;41.63;;;;;;;-6.60;80.71;101220.16;4993614;28;20266;-58
2024/01/11 00:12:00;;;;;;;82.53;44.27;;;;;;;-6.58;80.30;101215.28;4997505;28;20738;-58
2024/01/11 00:14:28;;;;;;;80.87;36.37;;;;;;;-6.60;80.68;101211.78;5003186;28;20550;-58
2024/01/11 00:16:56;;;;;;;86.23;39.50;;;;;;;-6.60;80.73;101220.16;4998407;28;20200;-58
2024/01/11 00:19:24;;;;;;;81.83;36.40;;;;;;;-6.61;80.55;101218.44;4992607;28;20208;-67
2024/01/11 00:21:53;;;;;;;83.03;36.97;;;;;;;-6.60;80.52;101235.22;4997630;28;20646;-61
2024/01/11 00:24:21;;;;;;;86.17;37.47;;;;;;;-6.55;80.57;101225.56;4992778;28;20615;-59
2024/01/11 00:26:48;;;;;;;82.13;38.97;;;;;;;-6.55;80.46;101220.53;5003788;28;20215;-58
2024/01/11 00:29:19;;;;;;;79.67;35.83;;;;;;;-6.53;80.60;101221.50;4997995;28;20290;-60
2024/01/11 00:31:48;;;;;;;77.43;35.77;;;;;;;-6.52;80.39;101210.72;5001588;28;20220;-60
2024/01/11 00:34:16;;;;;;;72.23;35.00;;;;;;;-6.52;80.45;101228.25;4993268;28;20208;-60
2024/01/11 00:36:44;;;;;;;93.70;41.13;;;;;;;-6.52;80.45;101234.91;4987770;28;20217;-58
2024/01/11 00:39:12;;;;;;;93.30;37.97;;;;;;;-6.50;80.77;101226.75;4996289;28;20211;-58
2024/01/11 00:41:41;;;;;;;75.20;34.23;;;;;;;-6.49;80.58;101213.47;5003884;28;20200;-59
2024/01/11 00:44:09;;;;;;;83.33;36.13;;;;;;;-6.47;80.34;101211.09;5001829;28;20236;-59
2024/01/11 00:46:39;;;;;;;78.47;35.73;;;;;;;-6.49;80.52;101223.50;4995733;28;20207;-59
2024/01/11 00:49:07;;;;;;;68.57;34.43;;;;;;;-6.48;80.46;101235.28;4993034;28;20208;-60
2024/01/11 00:51:35;;;;;;;76.50;35.53;;;;;;;-6.51;80.75;101249.22;4994961;28;20232;-59
2024/01/11 00:54:03;;;;;;;84.13;35.10;;;;;;;-6.51;80.63;101249.22;5003370;28;20658;-60
2024/01/11 00:56:32;;;;;;;74.47;34.90;;;;;;;-6.49;80.68;101242.69;4995864;28;20238;-61
2024/01/11 00:59:00;;;;;;;82.73;37.30;;;;;;;-6.51;80.85;101229.16;4993891;28;20200;-58
2024/01/11 01:01:28;;;;;;;79.23;35.00;;;;;;;-6.52;80.94;101217.38;4985457;28;20207;-61
2024/01/11 01:03:57;;;;;;;80.93;33.73;;;;;;;-6.53;80.88;101201.47;4995427;28;20577;-61
2024/01/11 01:06:25;;;;;;;71.30;32.30;;;;;;;-6.52;81.03;101203.19;4993758;28;20581;-60
2024/01/11 01:08:55;;;;;;;72.80;35.33;;;;;;;-6.54;81.35;101206.38;4992781;28;20204;-61
2024/01/11 01:11:23;;;;;;;79.33;36.33;;;;;;;-6.53;81.60;101214.00;4995921;28;20303;-56
2024/01/11 01:13:51;;;;;;;71.60;33.20;;;;;;;-6.50;81.63;101214.22;4993739;28;20648;-56
2024/01/11 01:16:19;;;;;;;77.63;33.90;;;;;;;-6.49;81.48;101207.59;5008950;28;20300;-57
2024/01/11 01:18:47;;;;;;;64.67;30.17;;;;;;;-6.45;81.68;101217.94;4982419;28;20291;-59
2024/01/11 01:21:16;;;;;;;70.07;33.67;;;;;;;-6.45;81.71;101197.03;4989419;28;20655;-58
2024/01/11 01:23:44;;;;;;;63.43;29.97;;;;;;;-6.42;82.06;101205.63;4994214;28;20231;-59
2024/01/11 01:26:12;;;;;;;67.23;29.63;;;;;;;-6.40;81.78;101199.13;5003308;28;20648;-57
2024/01/11 01:28:40;;;;;;;70.27;30.10;;;;;;;-6.40;81.80;101199.13;4997523;28;20655;-62
2024/01/11 01:31:08;;;;;;;61.53;28.10;;;;;;;-6.38;82.02;101210.13;4991724;28;20683;-59
2024/01/11 01:33:36;;;;;;;70.90;28.50;;;;;;;-6.36;82.09;101225.31;4994859;28;20299;-61
2024/01/11 01:36:05;;;;;;;63.90;28.07;;;;;;;-6.33;82.54;101208.84;4993784;28;20667;-57
2024/01/11 01:38:34;;;;;;;62.23;31.67;;;;;;;-6.29;82.13;101194.03;4991590;28;20210;-62
2024/01/11 01:41:02;;;;;;;58.23;28.37;;;;;;;-6.35;82.33;101197.81;4992123;28;20660;-60
2024/01/11 01:43:30;;;;;;;60.97;27.87;;;;;;;-6.33;82.85;101198.81;4996202;28;20216;-56
2024/01/11 01:45:59;;;;;;;56.50;27.27;;;;;;;-6.30;82.86;101209.81;4997088;28;20215;-59
2024/01/11 01:48:28;;;;;;;56.13;26.57;;;;;;;-6.30;83.13;101187.25;4990414;28;20212;-60
2024/01/11 01:50:56;;;;;;;53.30;26.03;;;;;;;-6.36;83.38;101187.69;4994253;28;20618;-58
2024/01/11 01:53:28;;;;;;;54.87;25.93;;;;;;;-6.39;83.79;101188.31;4989931;28;20208;-61
2024/01/11 01:55:58;;;;;;;55.53;23.27;;;;;;;-6.38;84.26;101196.72;4994415;28;20204;-61
2024/01/11 01:58:26;;;;;;;53.67;25.20;;;;;;;-6.36;84.25;101191.06;4999050;28;20204;-58
2024/01/11 02:00:54;;;;;;;49.20;24.33;;;;;;;-6.33;84.36;101188.78;4997083;28;20680;-59
2024/01/11 02:03:23;;;;;;;54.00;25.53;;;;;;;-6.30;84.88;101203.16;4993343;28;20674;-57
2024/01/11 02:05:53;;;;;;;52.03;26.50;;;;;;;-6.27;84.85;101192.50;4996560;28;20613;-55
2024/01/11 02:08:23;;;;;;;51.43;26.47;;;;;;;-6.25;84.88;101198.53;4993642;28;20254;-58
2024/01/11 02:10:52;;;;;;;51.40;24.40;;;;;;;-6.24;84.84;101193.59;4992675;28;20241;-59
2024/01/11 02:13:22;;;;;;;48.13;23.37;;;;;;;-6.27;85.23;101185.84;4999665;28;20208;-58
2024/01/11 02:15:50;;;;;;;53.03;24.37;;;;;;;-6.27;85.43;101174.94;4990321;28;20232;-63
2024/01/11 02:18:18;;;;;;;55.77;26.37;;;;;;;-6.26;85.57;101195.09;4994072;28;20204;-58
2024/01/11 02:20:47;;;;;;;46.53;24.17;;;;;;;-6.28;85.92;101199.16;4989066;28;20212;-59
2024/01/11 02:23:18;;;;;;;53.80;24.10;;;;;;;-6.26;86.20;101186.72;4993024;28;20318;-59
2024/01/11 02:25:47;;;;;;;51.17;24.70;;;;;;;-6.25;86.52;101175.94;4993411;28;20208;-59
2024/01/11 02:28:15;;;;;;;53.07;26.07;;;;;;;-6.26;86.50;101179.19;4998457;28;20658;-59
2024/01/11 02:30:43;;;;;;;64.93;26.40;;;;;;;-6.25;86.71;101185.97;5003543;28;20207;-59
2024/01/11 02:33:15;;;;;;;52.50;26.47;;;;;;;-6.23;86.82;101176.91;5002628;28;20226;-57
2024/01/11 02:35:44;;;;;;;49.03;22.00;;;;;;;-6.23;87.26;101175.28;5000901;28;20255;-59
2024/01/11 02:38:15;;;;;;;45.47;22.17;;;;;;;-6.19;87.58;101163.84;4994448;28;20294;-60
2024/01/11 02:40:44;;;;;;;48.03;21.73;;;;;;;-6.18;87.62;101168.13;4994558;28;20204;-59
2024/01/11 02:43:14;;;;;;;59.40;26.60;;;;;;;-6.19;87.45;101174.72;4993464;28;20294;-60
2024/01/11 02:45:42;;;;;;;56.23;25.07;;;;;;;-6.27;88.14;101168.28;5001705;28;20243;-59
2024/01/11 02:48:10;;;;;;;51.10;23.23;;;;;;;-6.25;88.44;101176.81;4993714;28;20203;-58
2024/01/11 02:50:38;;;;;;;48.20;21.70;;;;;;;-6.24;88.64;101170.16;4994471;28;20654;-59
2024/01/11 02:53:06;;;;;;;53.00;21.13;;;;;;;-6.19;88.97;101183.91;4983520;28;20215;-59
2024/01/11 02:55:34;;;;;;;54.33;22.53;;;;;;;-6.15;88.74;101163.28;4989901;28;20679;-59
2024/01/11 02:58:02;;;;;;;56.27;25.90;;;;;;;-6.12;88.90;101166.03;4991290;28;20228;-59
2024/01/11 03:00:31;;;;;;;49.73;23.23;;;;;;;-6.08;88.98;101188.06;4997238;28;20709;-60
2024/01/11 03:02:59;;;;;;;45.27;22.80;;;;;;;-6.09;89.01;101171.28;4991425;28;20657;-58
2024/01/11 03:05:27;;;;;;;56.80;24.43;;;;;;;-6.13;89.26;101165.16;4995167;28;20243;-60
2024/01/11 03:07:55;;;;;;;62.03;23.53;;;;;;;-6.13;89.88;101146.72;4982830;28;20204;-58
2024/01/11 03:10:23;;;;;;;58.37;24.83;;;;;;;-6.13;89.67;101134.19;4996834;28;20235;-60
2024/01/11 03:12:51;;;;;;;56.20;22.77;;;;;;;-6.15;89.83;101146.63;4992159;28;20607;-61
2024/01/11 03:15:19;;;;;;;62.27;24.50;;;;;;;-6.14;90.05;101152.53;4992925;28;20674;-59
2024/01/11 03:17:49;;;;;;;62.47;25.67;;;;;;;-6.14;90.09;101148.38;4994487;28;20208;-58
2024/01/11 03:20:20;;;;;;;55.17;24.80;;;;;;;-6.12;90.36;101140.94;4997530;28;20207;-60
2024/01/11 03:22:48;;;;;;;62.03;27.73;;;;;;;-6.11;90.04;101150.25;4997993;28;20603;-59
2024/01/11 03:25:15;;;;;;;67.60;28.73;;;;;;;-6.12;90.34;101148.47;4996135;28;20215;-58
2024/01/11 03:27:43;;;;;;;67.57;25.90;;;;;;;-6.17;90.64;101130.59;4994818;28;20208;-59
2024/01/11 03:30:12;;;;;;;55.23;23.87;;;;;;;-6.14;90.76;101137.47;5002156;28;20718;-56
2024/01/11 03:32:40;;;;;;;53.63;22.63;;;;;;;-6.11;90.88;101130.19;4996328;28;20223;-57
2024/01/11 03:35:10;;;;;;;54.27;21.80;;;;;;;-6.08;91.12;101105.28;4995886;28;20239;-56
2024/01/11 03:37:38;;;;;;;58.03;26.17;;;;;;;-6.10;90.94;101091.78;4995279;28;20747;-57
2024/01/11 03:40:07;;;;;;;70.03;27.50;;;;;;;-6.08;91.22;101087.72;4996543;28;20743;-61
2024/01/11 03:42:34;;;;;;;74.40;28.93;;;;;;;-6.10;91.53;101081.75;4987232;28;20236;-59
2024/01/11 03:45:03;;;;;;;60.10;24.97;;;;;;;-6.13;91.50;101074.00;4998084;28;20208;-57
2024/01/11 03:47:31;;;;;;;68.57;28.50;;;;;;;-6.11;91.69;101077.50;4994605;28;20208;-60
2024/01/11 03:49:59;;;;;;;67.63;28.83;;;;;;;-6.18;91.72;101065.28;5002965;28;20321;-60
2024/01/11 03:52:28;;;;;;;64.20;26.73;;;;;;;-6.26;91.82;101054.66;4992087;28;20226;-62
2024/01/11 03:54:56;;;;;;;68.33;28.93;;;;;;;-6.27;92.12;101060.47;5000340;28;20204;-57
2024/01/11 03:57:24;;;;;;;68.67;29.50;;;;;;;-6.34;92.21;101048.25;4989073;28;20260;-58
2024/01/11 03:59:52;;;;;;;74.30;31.67;;;;;;;-6.36;92.50;101055.66;4997491;28;20743;-58
2024/01/11 04:02:20;;;;;;;64.93;26.40;;;;;;;-6.35;92.59;101072.44;4994303;28;20678;-58
2024/01/11 04:04:48;;;;;;;67.93;28.77;;;;;;;-6.29;92.59;101051.09;4990378;28;20224;-58
2024/01/11 04:07:16;;;;;;;60.27;27.60;;;;;;;-6.24;92.41;101059.81;5001473;28;20215;-59
2024/01/11 04:09:46;;;;;;;67.50;31.77;;;;;;;-6.19;92.18;101056.84;4997795;28;20232;-53
2024/01/11 04:12:14;;;;;;;56.63;25.73;;;;;;;-6.13;92.19;101051.41;4993222;28;20303;-59
2024/01/11 04:14:42;;;;;;;68.07;28.97;;;;;;;-6.16;91.55;101044.53;5000784;28;20802;-57
2024/01/11 04:17:10;;;;;;;59.60;25.17;;;;;;;-6.16;91.85;101049.56;4993606;28;20215;-58
2024/01/11 04:19:38;;;;;;;66.77;27.43;;;;;;;-6.13;91.86;101056.44;4994101;28;20211;-65
2024/01/11 04:22:06;;;;;;;66.73;28.07;;;;;;;-6.12;91.24;101061.53;4999190;28;20255;-60
2024/01/11 04:24:33;;;;;;;67.00;31.43;;;;;;;-6.10;91.68;101061.69;4994388;28;20215;-57
2024/01/11 04:27:03;;;;;;;59.23;26.27;;;;;;;-6.10;91.56;101060.03;5007473;28;20196;-64
2024/01/11 04:29:31;;;;;;;66.87;28.20;;;;;;;-6.09;92.01;101055.88;4997338;28;20586;-59
2024/01/11 04:31:59;;;;;;;68.17;30.73;;;;;;;-6.11;92.01;101062.44;5000212;28;20294;-60
2024/01/11 04:34:27;;;;;;;69.40;29.90;;;;;;;-6.18;92.52;101065.28;4999677;28;20649;-60
2024/01/11 04:36:55;;;;;;;73.53;28.73;;;;;;;-6.20;93.23;101070.16;4989893;28;20271;-58
2024/01/11 04:39:23;;;;;;;68.17;29.63;;;;;;;-6.16;93.39;101073.78;4996752;28;20212;-60
2024/01/11 04:41:51;;;;;;;61.87;25.83;;;;;;;-6.14;93.53;101069.75;5007952;28;20273;-56
2024/01/11 04:44:20;;;;;;;67.53;28.87;;;;;;;-6.15;93.46;101071.38;5004756;28;20651;-58
2024/01/11 04:46:50;;;;;;;73.60;27.80;;;;;;;-6.14;93.76;101062.22;4992160;28;20204;-58
2024/01/11 04:49:18;;;;;;;77.53;29.17;;;;;;;-6.12;93.96;101061.53;4993623;28;20214;-58
2024/01/11 04:51:45;;;;;;;60.07;26.43;;;;;;;-6.12;94.45;101074.09;4990479;28;20730;-59
2024/01/11 04:54:13;;;;;;;74.33;29.93;;;;;;;-6.12;94.64;101075.72;4999843;28;20702;-59
2024/01/11 04:56:41;;;;;;;73.47;30.00;;;;;;;-6.08;95.25;101072.69;5006832;28;20233;-61
2024/01/11 04:59:09;;;;;;;70.90;29.20;;;;;;;-6.04;95.07;101071.25;5004302;28;20861;-60
2024/01/11 05:01:39;;;;;;;66.60;26.47;;;;;;;-6.02;95.20;101073.13;4997255;28;20208;-58
2024/01/11 05:04:07;;;;;;;73.30;29.03;;;;;;;-6.02;95.49;101068.09;4994141;28;20200;-59
2024/01/11 05:06:35;;;;;;;68.97;29.10;;;;;;;-5.98;95.65;101061.66;4991548;28;20291;-58
2024/01/11 05:09:04;;;;;;;65.90;26.13;;;;;;;-5.98;95.93;101044.09;4996943;28;20204;-57
2024/01/11 05:11:32;;;;;;;75.40;33.47;;;;;;;-6.01;95.89;101047.25;4997783;28;20287;-59
2024/01/11 05:14:00;;;;;;;63.00;27.27;;;;;;;-6.04;96.48;101044.53;4997012;28;20215;-59
2024/01/11 05:16:29;;;;;;;59.67;25.57;;;;;;;-6.03;96.74;101025.34;4995101;28;20211;-60
2024/01/11 05:18:59;;;;;;;70.23;30.93;;;;;;;-6.06;96.71;101033.53;5000572;28;20196;-61
2024/01/11 05:21:27;;;;;;;65.50;25.97;;;;;;;-6.11;97.12;101027.34;4991669;28;20655;-58
2024/01/11 05:23:55;;;;;;;62.23;25.67;;;;;;;-6.09;97.49;101005.72;4993967;28;20236;-60
2024/01/11 05:26:23;;;;;;;58.00;23.80;;;;;;;-6.08;97.74;101002.44;4995561;28;20619;-61
2024/01/11 05:28:51;;;;;;;69.50;30.33;;;;;;;-6.08;97.40;101007.44;5000547;28;20647;-58
2024/01/11 05:31:19;;;;;;;52.93;22.27;;;;;;;-6.06;97.42;101005.06;4992882;28;20204;-58
2024/01/11 05:33:47;;;;;;;56.57;24.83;;;;;;;-6.06;97.23;101003.44;4990216;28;20227;-59
2024/01/11 05:36:17;;;;;;;55.87;23.83;;;;;;;-6.03;97.37;100996.13;5006995;28;20208;-59
2024/01/11 05:38:46;;;;;;;54.17;22.70;;;;;;;-6.00;97.56;101006.38;5000699;28;20581;-62
2024/01/11 05:41:14;;;;;;;52.87;22.47;;;;;;;-5.97;97.37;100990.63;4992244;28;20204;-59
2024/01/11 05:43:42;;;;;;;59.13;25.07;;;;;;;-5.95;97.57;100990.00;4997577;28;20254;-61
2024/01/11 05:46:10;;;;;;;56.77;23.60;;;;;;;-5.99;96.55;100980.50;4992804;28;20439;-61
2024/01/11 05:48:38;;;;;;;58.47;25.47;;;;;;;-5.98;96.81;100978.88;4994038;28;20570;-60
2024/01/11 05:51:06;;;;;;;52.63;22.50;;;;;;;-5.97;97.13;100981.47;4998806;28;20216;-60
2024/01/11 05:53:38;;;;;;;51.23;21.63;;;;;;;-5.90;97.75;100985.25;4996400;28;20250;-58
2024/01/11 05:56:10;;;;;;;53.23;22.40;;;;;;;-5.89;96.86;100976.94;4997117;28;20215;-58
2024/01/11 05:58:38;;;;;;;52.43;21.47;;;;;;;-5.89;96.95;100970.31;4994282;28;21214;-58
2024/01/11 06:01:06;;;;;;;45.27;21.73;;;;;;;-5.85;97.00;100962.22;4986568;28;20212;-58
2024/01/11 06:03:34;;;;;;;54.63;22.70;;;;;;;-5.83;96.94;100960.69;4993753;28;20210;-60
2024/01/11 06:06:04;;;;;;;54.97;24.60;;;;;;;-5.83;96.60;100959.81;4999355;28;20226;-58
2024/01/11 06:08:32;;;;;;;46.77;22.53;;;;;;;-5.91;95.95;100951.75;4993924;28;20290;-59
2024/01/11 06:11:02;;;;;;;45.63;20.47;;;;;;;-5.90;96.46;100948.47;4998578;28;20235;-60
2024/01/11 06:13:30;;;;;;;54.60;23.47;;;;;;;-5.89;96.52;100950.25;4996856;28;20294;-58
2024/01/11 06:15:58;;;;;;;46.53;20.97;;;;;;;-5.88;96.44;100941.94;4997318;28;20303;-59
2024/01/11 06:18:26;;;;;;;38.00;19.00;;;;;;;-5.87;96.29;100942.81;5000950;28;20680;-52
2024/01/11 06:20:54;;;;;;;49.70;22.63;;;;;;;-5.85;96.54;100958.84;4994392;28;20204;-54
2024/01/11 06:23:22;;;;;;;43.10;19.63;;;;;;;-5.86;96.14;100939.53;4995690;28;20326;-52
2024/01/11 06:25:50;;;;;;;42.93;19.80;;;;;;;-5.83;96.08;100943.13;5000928;28;20294;-52
2024/01/11 06:28:20;;;;;;;46.03;19.73;;;;;;;-5.83;95.61;100942.25;5007318;28;20214;-56
2024/01/11 06:30:48;;;;;;;39.10;17.67;;;;;;;-5.81;95.94;100927.31;4997080;28;20303;-65
2024/01/11 06:33:16;;;;;;;47.23;21.00;;;;;;;-5.78;95.56;100945.06;4999867;28;20255;-62
2024/01/11 06:35:44;;;;;;;42.63;18.43;;;;;;;-5.80;95.40;100922.38;4997044;28;20208;-53
2024/01/11 06:38:12;;;;;;;48.93;21.13;;;;;;;-5.78;95.99;100940.03;4989048;28;20204;-52
2024/01/11 06:40:40;;;;;;;36.50;16.77;;;;;;;-5.78;95.48;100935.03;5001651;28;20266;-51
2024/01/11 06:43:08;;;;;;;39.83;19.13;;;;;;;-5.76;96.06;100931.88;4982229;28;20196;-55
2024/01/11 06:45:38;;;;;;;38.70;17.50;;;;;;;-5.72;96.11;100926.28;4993857;28;20208;-55
2024/01/11 06:48:07;;;;;;;37.87;16.33;;;;;;;-5.71;95.83;100922.13;4996292;28;20208;-55
2024/01/11 06:50:35;;;;;;;40.87;16.63;;;;;;;-5.66;95.96;100923.31;4995427;28;20203;-63
2024/01/11 06:53:04;;;;;;;41.43;17.77;;;;;;;-5.66;95.85;100906.63;4993051;28;20208;-50
2024/01/11 06:55:32;;;;;;;32.13;15.10;;;;;;;-5.62;96.08;100920.25;4995202;28;20200;-53
2024/01/11 06:58:01;;;;;;;39.77;18.50;;;;;;;-5.59;96.15;100912.94;5005760;28;20208;-52
2024/01/11 07:00:30;;;;;;;38.77;16.10;;;;;;;-5.57;96.13;100920.56;4999431;28;20203;-55
2024/01/11 07:02:59;;;;;;;36.50;17.20;;;;;;;-5.57;96.68;100910.50;4999102;28;20215;-53
2024/01/11 07:05:27;;;;;;;43.63;18.60;;;;;;;-5.53;97.42;100909.94;5001291;28;20556;-57
2024/01/11 07:07:55;;;;;;;36.13;15.77;;;;;;;-5.51;97.12;100910.94;4993983;28;20238;-58
2024/01/11 07:10:23;;;;;;;42.30;16.23;;;;;;;-5.46;97.35;100900.41;4994058;28;20288;-50
2024/01/11 07:12:51;;;;;;;33.87;15.17;;;;;;;-5.45;97.89;100899.66;4998372;28;20211;-53
2024/01/11 07:15:19;;;;;;;44.43;17.20;;;;;;;-5.42;97.96;100894.81;4998566;28;20282;-55
2024/01/11 07:17:47;;;;;;;38.13;17.27;;;;;;;-5.41;98.24;100890.69;5003515;28;20207;-57
2024/01/11 07:20:18;;;;;;;42.57;18.03;;;;;;;-5.38;98.66;100895.88;5005912;28;20199;-55
2024/01/11 07:22:47;;;;;;;47.90;18.80;;;;;;;-5.36;98.97;100904.41;4994828;28;20722;-58
2024/01/11 07:25:15;;;;;;;43.37;17.90;;;;;;;-5.37;99.45;100898.50;5002598;28;20234;-63
2024/01/11 07:27:43;;;;;;;40.67;17.70;;;;;;;-5.33;99.72;100888.66;4995342;28;20242;-60
2024/01/11 07:30:12;;;;;;;44.93;17.03;;;;;;;-5.31;99.96;100882.94;4991649;28;20323;-59
2024/01/11 07:32:40;;;;;;;39.93;16.53;;;;;;;-5.29;99.82;100900.66;4994668;28;20200;-62
2024/01/11 07:35:10;;;;;;;41.00;16.43;;;;;;;-5.28;100.00;100904.91;4997265;28;20769;-63
2024/01/11 07:37:44;;;;;;;46.37;18.70;;;;;;;-5.25;100.00;100880.84;4997518;28;20212;-58
2024/01/11 07:40:13;;;;;;;44.50;20.07;;;;;;;-5.22;100.00;100887.72;4993634;28;20199;-59
2024/01/11 07:42:41;;;;;;;39.70;16.70;;;;;;;-5.22;100.00;100887.72;4993110;28;20667;-62
2024/01/11 07:45:11;;;;;;;42.30;16.53;;;;;;;-5.20;100.00;100887.03;4999646;28;20204;-60
2024/01/11 07:47:39;;;;;;;51.07;19.53;;;;;;;-5.17;100.00;100893.91;4989531;28;20203;-60
2024/01/11 07:50:09;;;;;;;55.70;19.27;;;;;;;-5.18;100.00;100889.66;4995811;28;20234;-58
2024/01/11 07:52:37;;;;;;;41.63;18.10;;;;;;;-5.17;100.00;100892.25;4993814;28;20682;-61
2024/01/11 07:55:08;;;;;;;43.77;17.40;;;;;;;-5.14;100.00;100894.97;5000897;28;20619;-57
2024/01/11 07:57:36;;;;;;;48.00;19.00;;;;;;;-5.12;100.00;100906.00;4996250;28;20646;-57
2024/01/11 08:00:06;;;;;;;51.93;18.97;;;;;;;-5.11;100.00;100897.69;4998428;28;20358;-60
2024/01/11 08:02:35;;;;;;;58.07;21.30;;;;;;;-5.12;100.00;100898.47;4996439;28;20207;-60
2024/01/11 08:05:04;;;;;;;51.93;18.93;;;;;;;-5.12;100.00;100893.44;5003262;28;20210;-66
2024/01/11 08:07:32;;;;;;;41.23;16.60;;;;;;;-5.08;100.00;100907.06;5001835;28;20540;-61
2024/01/11 08:10:00;;;;;;;63.40;22.57;;;;;;;-5.03;100.00;100899.84;4995254;28;20203;-56
2024/01/11 08:12:30;;;;;;;49.60;18.03;;;;;;;-5.03;100.00;100910.75;4997365;28;20243;-57
2024/01/11 08:14:58;;;;;;;49.27;18.20;;;;;;;-4.98;100.00;100913.53;4999705;28;20687;-58
2024/01/11 08:17:26;;;;;;;45.83;18.23;;;;;;;-4.93;100.00;100912.22;4994579;28;20208;-56
2024/01/11 08:19:55;;;;;;;53.07;20.47;;;;;;;-4.89;100.00;100915.03;4996854;28;20211;-56
2024/01/11 08:22:23;;;;;;;55.73;21.07;;;;;;;-4.88;100.00;100906.69;4996575;28;20581;-54
2024/01/11 08:24:55;;;;;;;56.60;19.90;;;;;;;-4.87;100.00;100908.44;4993719;28;20232;-52
2024/01/11 08:27:23;;;;;;;51.23;17.73;;;;;;;-4.83;100.00;100908.63;4994965;28;20207;-51
2024/01/11 08:29:53;;;;;;;50.77;19.27;;;;;;;-4.78;100.00;100917.34;4998820;28;20203;-56
2024/01/11 08:32:21;;;;;;;59.53;19.80;;;;;;;-4.75;100.00;100920.94;4994578;28;20207;-52
2024/01/11 08:34:58;;;;;;;53.07;18.63;;;;;;;-4.69;100.00;100910.38;4999881;28;20218;-61
2024/01/11 08:37:27;;;;;;;43.23;16.60;;;;;;;-4.69;100.00;100907.88;4996432;28;20204;-59
2024/01/11 08:39:55;;;;;;;52.73;19.57;;;;;;;-4.68;100.00;100907.09;4998583;28;20575;-58
2024/01/11 08:42:23;;;;;;;50.83;18.67;;;;;;;-4.66;100.00;100915.59;5007577;28;20258;-57
2024/01/11 08:44:51;;;;;;;57.13;21.90;;;;;;;-4.66;100.00;100908.06;4998964;28;20566;-59
2024/01/11 08:47:21;;;;;;;59.23;20.93;;;;;;;-4.63;100.00;100923.34;4994321;28;20598;-60
2024/01/11 08:49:49;;;;;;;51.57;20.47;;;;;;;-4.60;100.00;100918.53;4986395;28;20730;-59
2024/01/11 08:52:17;;;;;;;53.27;22.00;;;;;;;-4.59;100.00;100907.69;4990474;28;20208;-56
2024/01/11 08:54:45;;;;;;;49.27;20.57;;;;;;;-4.59;100.00;100914.34;4995320;28;20234;-59
2024/01/11 08:57:13;;;;;;;52.07;18.07;;;;;;;-4.56;100.00;100920.44;4995745;28;20288;-59
2024/01/11 08:59:42;;;;;;;44.70;18.40;;;;;;;-4.55;100.00;100896.16;4992666;28;20787;-59
2024/01/11 09:02:10;;;;;;;62.73;22.87;;;;;;;-4.51;100.00;100911.53;5002932;28;20305;-61
2024/01/11 09:04:47;;;;;;;61.67;19.77;;;;;;;-4.47;100.00;100908.44;4991919;28;20203;-58
2024/01/11 09:07:16;;;;;;;44.83;17.17;;;;;;;-4.43;100.00;100907.84;4985723;28;20200;-61
2024/01/11 09:09:44;;;;;;;42.33;16.93;;;;;;;-4.38;100.00;100898.97;4985316;28;20299;-51
2024/01/11 09:12:23;;;;;;;46.97;18.07;;;;;;;-4.35;100.00;100902.41;4982663;28;20219;-63
2024/01/11 09:14:51;;;;;;;50.93;18.60;;;;;;;-4.35;100.00;100894.88;4994779;28;20713;-53
2024/01/11 09:17:19;;;;;;;47.93;19.13;;;;;;;-4.34;100.00;100887.44;4991735;28;20210;-63
2024/01/11 09:19:49;;;;;;;39.90;16.23;;;;;;;-4.34;100.00;100889.06;4990267;28;20611;-59
2024/01/11 09:22:17;;;;;;;41.53;15.83;;;;;;;-4.34;100.00;100892.47;4998394;28;20261;-56
2024/01/11 09:24:45;;;;;;;44.70;19.37;;;;;;;-4.31;100.00;100891.78;4994895;28;20212;-63
2024/01/11 09:27:13;;;;;;;39.17;17.87;;;;;;;-4.32;100.00;100880.84;5000256;28;20243;-60
2024/01/11 09:29:44;;;;;;;38.40;17.33;;;;;;;-4.27;100.00;100873.56;4994255;28;20208;-56
2024/01/11 09:32:13;;;;;;;32.70;15.30;;;;;;;-4.22;100.00;100877.25;5003959;28;20215;-58
2024/01/11 09:34:41;;;;;;;41.40;15.00;;;;;;;-4.16;100.00;100867.53;4989865;28;20208;-59
2024/01/11 09:37:10;;;;;;;37.27;15.83;;;;;;;-4.08;100.00;100861.34;4997295;28;20622;-57
2024/01/11 09:39:38;;;;;;;38.70;18.33;;;;;;;-4.05;100.00;100858.13;4990935;28;20615;-61
2024/01/11 09:42:09;;;;;;;36.70;16.23;;;;;;;-4.02;100.00;100858.31;4997875;28;20200;-60
2024/01/11 09:44:38;;;;;;;34.57;15.90;;;;;;;-4.00;100.00;100860.16;4992235;28;20203;-58
2024/01/11 09:47:08;;;;;;;37.37;15.80;;;;;;;-3.99;100.00;100840.88;5000931;28;20639;-62
2024/01/11 09:49:43;;;;;;;40.50;16.43;;;;;;;-3.98;100.00;100838.44;4991525;28;20235;-54
2024/01/11 09:52:14;;;;;;;35.17;15.63;;;;;;;-3.96;100.00;100844.44;4996232;28;20294;-50
2024/01/11 09:54:43;;;;;;;31.63;13.87;;;;;;;-3.97;100.00;100840.19;4997086;28;20211;-52
2024/01/11 09:57:11;;;;;;;38.00;15.33;;;;;;;-3.96;100.00;100846.97;4996038;28;20566;-59
2024/01/11 09:59:40;;;;;;;33.57;14.87;;;;;;;-3.94;100.00;100839.50;4992948;28;20258;-54
2024/01/11 10:02:12;;;;;;;38.23;17.07;;;;;;;-3.90;100.00;100836.41;4999760;28;20774;-55
2024/01/11 10:04:43;;;;;;;34.73;15.20;;;;;;;-3.86;100.00;100827.38;4993857;28;20627;-57
2024/01/11 10:07:14;;;;;;;36.33;15.13;;;;;;;-3.83;100.00;100822.50;4996995;28;20261;-54
2024/01/11 10:09:43;;;;;;;37.83;15.37;;;;;;;-3.83;100.00;100825.03;5002349;28;20262;-65
2024/01/11 10:12:11;;;;;;;38.90;17.60;;;;;;;-3.83;100.00;100820.84;4996369;28;21003;-60
2024/01/11 10:14:39;;;;;;;34.37;17.20;;;;;;;-3.81;100.00;100811.75;4999993;28;20196;-52
2024/01/11 10:17:07;;;;;;;35.50;14.63;;;;;;;-3.78;100.00;100828.69;5001121;28;20215;-55
2024/01/11 10:19:39;;;;;;;36.10;15.73;;;;;;;-3.76;100.00;100827.13;4998893;28;20697;-62
2024/01/11 10:22:07;;;;;;;40.63;16.83;;;;;;;-3.72;100.00;100832.44;4993749;28;20204;-56
2024/01/11 10:24:36;;;;;;;41.20;16.80;;;;;;;-3.69;100.00;100836.78;4995679;28;20204;-54
2024/01/11 10:27:05;;;;;;;34.03;15.23;;;;;;;-3.67;100.00;100832.72;4993802;28;20203;-52
2024/01/11 10:29:36;;;;;;;36.83;15.47;;;;;;;-3.62;100.00;100807.78;4998248;28;20230;-54
2024/01/11 10:32:05;;;;;;;39.20;16.20;;;;;;;-3.60;100.00;100818.81;4992988;28;20199;-57
2024/01/11 10:34:33;;;;;;;40.17;17.70;;;;;;;-3.61;100.00;100822.97;4991732;28;20212;-57
2024/01/11 10:37:01;;;;;;;37.63;15.13;;;;;;;-3.58;100.00;100825.66;5000947;28;20310;-50
2024/01/11 10:39:31;;;;;;;46.73;19.60;;;;;;;-3.59;100.00;100828.09;4993560;28;20196;-56
2024/01/11 10:42:06;;;;;;;41.57;19.20;;;;;;;-3.58;100.00;100820.63;5002255;28;20293;-53
2024/01/11 10:44:36;;;;;;;48.30;19.10;;;;;;;-3.55;100.00;100810.72;4993281;28;20648;-63
2024/01/11 10:47:06;;;;;;;45.53;19.03;;;;;;;-3.49;100.00;100806.06;4992628;28;20293;-55
2024/01/11 10:49:40;;;;;;;47.83;18.60;;;;;;;-3.48;100.00;100807.78;4992091;28;20737;-55
2024/01/11 10:52:10;;;;;;;43.67;18.97;;;;;;;-3.45;100.00;100815.53;4994396;28;20718;-53
2024/01/11 10:54:40;;;;;;;48.30;19.90;;;;;;;-3.45;100.00;100802.94;4995413;28;20259;-56
2024/01/11 10:57:11;;;;;;;41.70;18.10;;;;;;;-3.43;100.00;100798.81;4995586;28;20231;-55
2024/01/11 10:59:41;;;;;;;42.30;17.93;;;;;;;-3.40;100.00;100805.69;4998943;28;20208;-53
2024/01/11 11:02:14;;;;;;;46.90;18.53;;;;;;;-3.37;100.00;100789.88;4992052;28;20287;-51
2024/01/11 11:04:43;;;;;;;46.90;19.17;;;;;;;-3.34;100.00;100782.50;4992647;28;20211;-54
2024/01/11 11:07:12;;;;;;;59.20;22.63;;;;;;;-3.33;100.00;100781.72;4996970;28;20212;-54
2024/01/11 11:09:43;;;;;;;55.77;19.07;;;;;;;-3.34;100.00;100785.91;5000292;28;20204;-57
2024/01/11 11:12:14;;;;;;;50.67;20.00;;;;;;;-3.30;100.00;100775.19;4991499;28;20766;-52
2024/01/11 11:14:44;;;;;;;51.87;22.10;;;;;;;-3.29;100.00;100763.47;4995416;28;20220;-53